sensor_id;sensor_type;location;lat;lon;timestamp;pressure;altitude;pressure_sealevel;temperature;humidity
54540;BME280;40438;52.992;18.604;2022-09-27T00:01:32;99598.84;;;9.35;100.00
54540;BME280;40438;52.992;18.604;2022-09-27T00:03:58;99605.50;;;9.33;100.00
54540;BME280;40438;52.992;18.604;2022-09-27T00:06:26;99599.22;;;9.27;100.00
54540;BME280;40438;52.992;18.604;2022-09-27T00:08:54;99593.97;;;9.20;100.00
54540;BME280;40438;52.992;18.604;2022-09-27T00:11:24;99597.81;;;9.13;100.00
54540;BME280;40438;52.992;18.604;2022-09-27T00:13:51;99594.56;;;9.11;100.00
54540;BME280;40438;52.992;18.604;2022-09-27T00:16:16;99593.38;;;9.06;100.00
54540;BME280;40438;52.992;18.604;2022-09-27T00:18:42;99593.16;;;8.96;100.00
54540;BME280;40438;52.992;18.604;2022-09-27T00:21:11;99581.44;;;8.86;100.00
54540;BME280;40438;52.992;18.604;2022-09-27T00:23:37;99586.78;;;8.86;100.00
54540;BME280;40438;52.992;18.604;2022-09-27T00:26:05;99593.59;;;8.81;100.00
54540;BME280;40438;52.992;18.604;2022-09-27T00:28:32;99597.91;;;8.82;100.00
54540;BME280;40438;52.992;18.604;2022-09-27T00:30:58;99591.16;;;8.80;100.00
54540;BME280;40438;52.992;18.604;2022-09-27T00:33:24;99591.75;;;8.82;100.00
54540;BME280;40438;52.992;18.604;2022-09-27T00:35:50;99593.84;;;8.80;100.00
54540;BME280;40438;52.992;18.604;2022-09-27T00:38:16;99590.13;;;8.81;100.00
54540;BME280;40438;52.992;18.604;2022-09-27T00:40:43;99595.25;;;8.82;100.00
54540;BME280;40438;52.992;18.604;2022-09-27T00:43:15;99583.75;;;8.82;100.00
54540;BME280;40438;52.992;18.604;2022-09-27T00:45:42;99585.59;;;8.81;100.00
54540;BME280;40438;52.992;18.604;2022-09-27T00:48:12;99584.22;;;8.79;100.00
54540;BME280;40438;52.992;18.604;2022-09-27T00:50:42;99576.66;;;8.76;100.00
54540;BME280;40438;52.992;18.604;2022-09-27T00:53:15;99575.00;;;8.75;100.00
54540;BME280;40438;52.992;18.604;2022-09-27T00:55:45;99567.47;;;8.72;100.00
54540;BME280;40438;52.992;18.604;2022-09-27T00:58:17;99568.84;;;8.63;100.00
54540;BME280;40438;52.992;18.604;2022-09-27T01:00:50;99570.13;;;8.60;100.00
54540;BME280;40438;52.992;18.604;2022-09-27T01:03:23;99558.06;;;8.57;100.00
54540;BME280;40438;52.992;18.604;2022-09-27T01:05:51;99562.94;;;8.60;100.00
54540;BME280;40438;52.992;18.604;2022-09-27T01:08:17;99553.38;;;8.53;100.00
54540;BME280;40438;52.992;18.604;2022-09-27T01:10:51;99555.84;;;8.54;100.00
54540;BME280;40438;52.992;18.604;2022-09-27T01:13:30;99548.28;;;8.51;100.00
54540;BME280;40438;52.992;18.604;2022-09-27T01:16:02;99545.63;;;8.51;100.00
54540;BME280;40438;52.992;18.604;2022-09-27T01:18:35;99541.34;;;8.50;100.00
54540;BME280;40438;52.992;18.604;2022-09-27T01:27:48;99530.72;;;8.32;100.00
54540;BME280;40438;52.992;18.604;2022-09-27T01:30:25;99531.75;;;8.31;100.00
54540;BME280;40438;52.992;18.604;2022-09-27T01:33:07;99517.13;;;8.33;100.00
54540;BME280;40438;52.992;18.604;2022-09-27T01:35:37;99520.25;;;8.30;100.00
54540;BME280;40438;52.992;18.604;2022-09-27T01:38:14;99527.09;;;8.26;100.00
54540;BME280;40438;52.992;18.604;2022-09-27T01:40:49;99518.75;;;8.23;100.00
54540;BME280;40438;52.992;18.604;2022-09-27T01:43:47;99520.47;;;8.17;100.00
54540;BME280;40438;52.992;18.604;2022-09-27T01:46:22;99519.88;;;8.15;100.00
54540;BME280;40438;52.992;18.604;2022-09-27T01:49:14;99520.09;;;8.13;100.00
54540;BME280;40438;52.992;18.604;2022-09-27T01:51:44;99518.59;;;8.06;100.00
54540;BME280;40438;52.992;18.604;2022-09-27T01:54:14;99516.13;;;8.04;100.00
54540;BME280;40438;52.992;18.604;2022-09-27T01:56:45;99507.19;;;7.99;100.00
54540;BME280;40438;52.992;18.604;2022-09-27T01:59:19;99510.28;;;7.96;100.00
54540;BME280;40438;52.992;18.604;2022-09-27T02:02:00;99505.19;;;7.94;100.00
54540;BME280;40438;52.992;18.604;2022-09-27T02:04:41;99499.97;;;7.87;100.00
54540;BME280;40438;52.992;18.604;2022-09-27T02:07:21;99495.28;;;7.83;100.00
54540;BME280;40438;52.992;18.604;2022-09-27T02:09:52;99494.72;;;7.81;100.00
54540;BME280;40438;52.992;18.604;2022-09-27T02:12:27;99498.81;;;7.83;100.00
54540;BME280;40438;52.992;18.604;2022-09-27T02:14:57;99494.41;;;7.89;100.00
54540;BME280;40438;52.992;18.604;2022-09-27T02:17:36;99490.31;;;7.86;100.00
54540;BME280;40438;52.992;18.604;2022-09-27T02:20:10;99492.63;;;7.83;100.00
54540;BME280;40438;52.992;18.604;2022-09-27T02:22:51;99497.25;;;7.76;100.00
54540;BME280;40438;52.992;18.604;2022-09-27T02:25:22;99499.31;;;7.74;100.00
54540;BME280;40438;52.992;18.604;2022-09-27T02:27:57;99508.72;;;7.76;100.00
54540;BME280;40438;52.992;18.604;2022-09-27T02:30:28;99490.50;;;7.73;100.00
54540;BME280;40438;52.992;18.604;2022-09-27T02:33:06;99501.41;;;7.72;100.00
54540;BME280;40438;52.992;18.604;2022-09-27T02:35:33;99498.97;;;7.70;100.00
54540;BME280;40438;52.992;18.604;2022-09-27T02:38:00;99498.66;;;7.78;100.00
54540;BME280;40438;52.992;18.604;2022-09-27T02:40:30;99503.38;;;7.76;100.00
54540;BME280;40438;52.992;18.604;2022-09-27T02:42:56;99504.53;;;7.68;100.00
54540;BME280;40438;52.992;18.604;2022-09-27T02:45:22;99500.69;;;7.64;100.00
54540;BME280;40438;52.992;18.604;2022-09-27T02:47:59;99496.53;;;7.68;100.00
54540;BME280;40438;52.992;18.604;2022-09-27T02:50:57;99496.09;;;7.72;100.00
54540;BME280;40438;52.992;18.604;2022-09-27T02:53:49;99498.16;;;7.70;100.00
54540;BME280;40438;52.992;18.604;2022-09-27T02:56:46;99489.09;;;7.71;100.00
54540;BME280;40438;52.992;18.604;2022-09-27T02:59:40;99483.72;;;7.77;100.00
54540;BME280;40438;52.992;18.604;2022-09-27T03:02:31;99494.50;;;7.82;100.00
54540;BME280;40438;52.992;18.604;2022-09-27T03:05:17;99485.59;;;7.88;100.00
54540;BME280;40438;52.992;18.604;2022-09-27T03:07:46;99490.13;;;7.88;100.00
54540;BME280;40438;52.992;18.604;2022-09-27T03:10:16;99482.47;;;7.91;100.00
54540;BME280;40438;52.992;18.604;2022-09-27T03:12:42;99487.59;;;7.93;100.00
54540;BME280;40438;52.992;18.604;2022-09-27T03:15:08;99477.94;;;7.92;100.00
54540;BME280;40438;52.992;18.604;2022-09-27T03:17:54;99474.47;;;7.91;100.00
54540;BME280;40438;52.992;18.604;2022-09-27T03:20:39;99469.84;;;7.99;100.00
54540;BME280;40438;52.992;18.604;2022-09-27T03:23:16;99463.50;;;8.00;100.00
54540;BME280;40438;52.992;18.604;2022-09-27T03:25:42;99467.78;;;8.01;100.00
54540;BME280;40438;52.992;18.604;2022-09-27T03:28:10;99459.53;;;8.02;100.00
54540;BME280;40438;52.992;18.604;2022-09-27T03:30:36;99460.38;;;8.03;100.00
54540;BME280;40438;52.992;18.604;2022-09-27T03:33:03;99451.31;;;8.04;100.00
54540;BME280;40438;52.992;18.604;2022-09-27T03:35:58;99453.66;;;8.12;100.00
54540;BME280;40438;52.992;18.604;2022-09-27T03:38:25;99456.53;;;8.10;100.00
54540;BME280;40438;52.992;18.604;2022-09-27T03:40:51;99449.25;;;8.06;100.00
54540;BME280;40438;52.992;18.604;2022-09-27T03:43:18;99453.75;;;8.05;100.00
54540;BME280;40438;52.992;18.604;2022-09-27T03:45:45;99447.94;;;8.08;100.00
54540;BME280;40438;52.992;18.604;2022-09-27T03:48:11;99439.38;;;8.06;100.00
54540;BME280;40438;52.992;18.604;2022-09-27T03:50:36;99436.81;;;8.11;100.00
54540;BME280;40438;52.992;18.604;2022-09-27T03:53:03;99435.09;;;8.17;100.00
54540;BME280;40438;52.992;18.604;2022-09-27T03:55:30;99425.69;;;8.14;100.00
54540;BME280;40438;52.992;18.604;2022-09-27T03:57:56;99427.56;;;8.14;100.00
54540;BME280;40438;52.992;18.604;2022-09-27T04:00:22;99424.88;;;8.14;100.00
54540;BME280;40438;52.992;18.604;2022-09-27T04:02:48;99443.56;;;8.14;100.00
54540;BME280;40438;52.992;18.604;2022-09-27T04:05:20;99440.09;;;8.13;100.00
54540;BME280;40438;52.992;18.604;2022-09-27T04:07:46;99431.25;;;8.01;100.00
54540;BME280;40438;52.992;18.604;2022-09-27T04:10:13;99429.19;;;8.03;100.00
54540;BME280;40438;52.992;18.604;2022-09-27T04:12:42;99429.63;;;8.00;100.00
54540;BME280;40438;52.992;18.604;2022-09-27T04:15:09;99429.19;;;8.03;100.00
54540;BME280;40438;52.992;18.604;2022-09-27T04:17:50;99423.84;;;8.03;100.00
54540;BME280;40438;52.992;18.604;2022-09-27T04:20:39;99416.66;;;8.04;100.00
54540;BME280;40438;52.992;18.604;2022-09-27T04:23:11;99421.75;;;8.05;100.00
54540;BME280;40438;52.992;18.604;2022-09-27T04:25:40;99426.50;;;8.03;100.00
54540;BME280;40438;52.992;18.604;2022-09-27T04:28:16;99423.13;;;8.08;100.00
54540;BME280;40438;52.992;18.604;2022-09-27T04:30:42;99412.72;;;8.06;100.00
54540;BME280;40438;52.992;18.604;2022-09-27T04:33:11;99417.09;;;8.01;100.00
54540;BME280;40438;52.992;18.604;2022-09-27T04:36:03;99414.69;;;7.99;100.00
54540;BME280;40438;52.992;18.604;2022-09-27T04:38:29;99417.34;;;7.99;100.00
54540;BME280;40438;52.992;18.604;2022-09-27T04:40:55;99421.28;;;7.97;100.00
54540;BME280;40438;52.992;18.604;2022-09-27T04:43:23;99420.00;;;7.99;100.00
54540;BME280;40438;52.992;18.604;2022-09-27T04:45:48;99418.72;;;8.02;100.00
54540;BME280;40438;52.992;18.604;2022-09-27T04:48:14;99419.41;;;7.97;100.00
54540;BME280;40438;52.992;18.604;2022-09-27T04:50:40;99414.31;;;7.96;100.00
54540;BME280;40438;52.992;18.604;2022-09-27T04:53:06;99404.47;;;7.96;100.00
54540;BME280;40438;52.992;18.604;2022-09-27T04:55:32;99402.63;;;7.97;100.00
54540;BME280;40438;52.992;18.604;2022-09-27T04:57:59;99405.03;;;7.98;100.00
54540;BME280;40438;52.992;18.604;2022-09-27T05:00:26;99398.69;;;7.99;100.00
54540;BME280;40438;52.992;18.604;2022-09-27T05:02:59;99400.97;;;7.96;100.00
54540;BME280;40438;52.992;18.604;2022-09-27T05:05:55;99397.03;;;7.98;100.00
54540;BME280;40438;52.992;18.604;2022-09-27T05:08:20;99397.84;;;7.99;100.00
54540;BME280;40438;52.992;18.604;2022-09-27T05:11:06;99391.72;;;7.98;100.00
54540;BME280;40438;52.992;18.604;2022-09-27T05:13:32;99388.47;;;8.08;100.00
54540;BME280;40438;52.992;18.604;2022-09-27T05:16:03;99381.88;;;8.10;100.00
54540;BME280;40438;52.992;18.604;2022-09-27T05:18:47;99388.59;;;8.13;100.00
54540;BME280;40438;52.992;18.604;2022-09-27T05:21:32;99384.06;;;8.13;100.00
54540;BME280;40438;52.992;18.604;2022-09-27T05:23:57;99388.50;;;8.20;100.00
54540;BME280;40438;52.992;18.604;2022-09-27T05:26:23;99391.28;;;8.25;100.00
54540;BME280;40438;52.992;18.604;2022-09-27T05:28:49;99384.44;;;8.29;100.00
54540;BME280;40438;52.992;18.604;2022-09-27T05:31:16;99384.91;;;8.37;100.00
54540;BME280;40438;52.992;18.604;2022-09-27T05:33:42;99371.22;;;8.46;100.00
54540;BME280;40438;52.992;18.604;2022-09-27T05:36:38;99383.16;;;8.55;100.00
54540;BME280;40438;52.992;18.604;2022-09-27T05:39:04;99372.38;;;8.62;100.00
54540;BME280;40438;52.992;18.604;2022-09-27T05:41:30;99363.09;;;8.64;100.00
54540;BME280;40438;52.992;18.604;2022-09-27T05:43:56;99379.78;;;8.71;100.00
54540;BME280;40438;52.992;18.604;2022-09-27T05:46:23;99375.84;;;8.74;100.00
54540;BME280;40438;52.992;18.604;2022-09-27T05:48:49;99365.03;;;8.80;100.00
54540;BME280;40438;52.992;18.604;2022-09-27T05:51:14;99374.66;;;8.81;100.00
54540;BME280;40438;52.992;18.604;2022-09-27T05:53:41;99366.28;;;8.90;100.00
54540;BME280;40438;52.992;18.604;2022-09-27T05:56:15;99370.66;;;8.96;100.00
54540;BME280;40438;52.992;18.604;2022-09-27T05:58:59;99375.28;;;9.00;100.00
54540;BME280;40438;52.992;18.604;2022-09-27T06:01:32;99375.06;;;9.02;100.00
54540;BME280;40438;52.992;18.604;2022-09-27T06:04:30;99374.25;;;9.01;100.00
54540;BME280;40438;52.992;18.604;2022-09-27T06:07:14;99374.69;;;9.10;100.00
54540;BME280;40438;52.992;18.604;2022-09-27T06:09:40;99373.97;;;9.15;100.00
54540;BME280;40438;52.992;18.604;2022-09-27T06:12:07;99377.59;;;9.09;100.00
54540;BME280;40438;52.992;18.604;2022-09-27T06:14:32;99379.69;;;9.06;100.00
54540;BME280;40438;52.992;18.604;2022-09-27T06:17:06;99371.69;;;9.06;100.00
54540;BME280;40438;52.992;18.604;2022-09-27T06:19:34;99369.94;;;9.00;100.00
54540;BME280;40438;52.992;18.604;2022-09-27T06:22:00;99356.59;;;9.00;100.00
54540;BME280;40438;52.992;18.604;2022-09-27T06:24:35;99361.00;;;9.06;100.00
54540;BME280;40438;52.992;18.604;2022-09-27T06:27:06;99352.50;;;9.10;100.00
54540;BME280;40438;52.992;18.604;2022-09-27T06:29:47;99362.38;;;9.09;100.00
54540;BME280;40438;52.992;18.604;2022-09-27T06:32:26;99365.31;;;9.07;100.00
54540;BME280;40438;52.992;18.604;2022-09-27T06:35:09;99378.75;;;9.13;100.00
54540;BME280;40438;52.992;18.604;2022-09-27T06:37:34;99373.88;;;9.10;100.00
54540;BME280;40438;52.992;18.604;2022-09-27T06:40:01;99375.25;;;9.12;100.00
54540;BME280;40438;52.992;18.604;2022-09-27T06:42:45;99382.59;;;9.17;100.00
54540;BME280;40438;52.992;18.604;2022-09-27T06:45:24;99372.38;;;9.14;100.00
54540;BME280;40438;52.992;18.604;2022-09-27T06:48:18;99381.75;;;9.16;100.00
54540;BME280;40438;52.992;18.604;2022-09-27T06:51:01;99382.19;;;9.25;100.00
54540;BME280;40438;52.992;18.604;2022-09-27T06:53:28;99378.22;;;9.27;100.00
54540;BME280;40438;52.992;18.604;2022-09-27T06:55:56;99382.91;;;9.20;100.00
54540;BME280;40438;52.992;18.604;2022-09-27T06:58:22;99382.31;;;9.18;100.00
54540;BME280;40438;52.992;18.604;2022-09-27T07:01:14;99380.00;;;9.22;100.00
54540;BME280;40438;52.992;18.604;2022-09-27T07:04:00;99386.13;;;9.22;100.00
54540;BME280;40438;52.992;18.604;2022-09-27T07:06:46;99382.28;;;9.30;100.00
54540;BME280;40438;52.992;18.604;2022-09-27T07:09:23;99363.59;;;9.30;100.00
54540;BME280;40438;52.992;18.604;2022-09-27T07:11:49;99368.16;;;9.46;100.00
54540;BME280;40438;52.992;18.604;2022-09-27T07:14:14;99365.00;;;9.49;100.00
54540;BME280;40438;52.992;18.604;2022-09-27T07:16:40;99371.00;;;9.57;100.00
54540;BME280;40438;52.992;18.604;2022-09-27T07:19:08;99377.25;;;9.62;100.00
54540;BME280;40438;52.992;18.604;2022-09-27T07:21:33;99378.91;;;9.80;100.00
54540;BME280;40438;52.992;18.604;2022-09-27T07:23:59;99379.78;;;9.86;100.00
54540;BME280;40438;52.992;18.604;2022-09-27T07:26:26;99369.09;;;10.03;100.00
54540;BME280;40438;52.992;18.604;2022-09-27T07:28:52;99373.41;;;10.04;100.00
54540;BME280;40438;52.992;18.604;2022-09-27T07:31:18;99366.75;;;10.06;100.00
54540;BME280;40438;52.992;18.604;2022-09-27T07:33:44;99376.78;;;10.16;100.00
54540;BME280;40438;52.992;18.604;2022-09-27T07:36:12;99367.13;;;10.49;100.00
54540;BME280;40438;52.992;18.604;2022-09-27T07:38:41;99360.00;;;10.76;100.00
54540;BME280;40438;52.992;18.604;2022-09-27T07:41:08;99367.09;;;10.87;100.00
54540;BME280;40438;52.992;18.604;2022-09-27T07:43:34;99371.75;;;10.97;100.00
54540;BME280;40438;52.992;18.604;2022-09-27T07:46:00;99362.53;;;11.10;100.00
54540;BME280;40438;52.992;18.604;2022-09-27T07:48:46;99367.16;;;11.14;100.00
54540;BME280;40438;52.992;18.604;2022-09-27T07:51:25;99368.16;;;11.08;100.00
54540;BME280;40438;52.992;18.604;2022-09-27T07:53:58;99369.16;;;11.02;100.00
54540;BME280;40438;52.992;18.604;2022-09-27T07:56:44;99376.13;;;11.03;100.00
54540;BME280;40438;52.992;18.604;2022-09-27T07:59:12;99390.19;;;10.93;100.00
54540;BME280;40438;52.992;18.604;2022-09-27T08:01:38;99378.44;;;10.95;100.00
54540;BME280;40438;52.992;18.604;2022-09-27T08:04:04;99382.22;;;10.99;100.00
54540;BME280;40438;52.992;18.604;2022-09-27T08:06:32;99381.16;;;11.00;100.00
54540;BME280;40438;52.992;18.604;2022-09-27T08:08:57;99384.41;;;11.02;100.00
54540;BME280;40438;52.992;18.604;2022-09-27T08:11:24;99376.69;;;11.05;100.00
54540;BME280;40438;52.992;18.604;2022-09-27T08:13:50;99388.28;;;11.11;100.00
54540;BME280;40438;52.992;18.604;2022-09-27T08:16:16;99382.66;;;11.12;100.00
54540;BME280;40438;52.992;18.604;2022-09-27T08:19:20;99378.22;;;11.23;100.00
54540;BME280;40438;52.992;18.604;2022-09-27T08:22:06;99378.91;;;11.35;100.00
54540;BME280;40438;52.992;18.604;2022-09-27T08:24:52;99387.09;;;11.51;100.00
54540;BME280;40438;52.992;18.604;2022-09-27T08:27:41;99382.72;;;11.45;100.00
54540;BME280;40438;52.992;18.604;2022-09-27T08:30:19;99384.09;;;11.47;100.00
54540;BME280;40438;52.992;18.604;2022-09-27T08:32:45;99380.00;;;11.39;100.00
54540;BME280;40438;52.992;18.604;2022-09-27T08:35:11;99372.34;;;11.48;100.00
54540;BME280;40438;52.992;18.604;2022-09-27T08:37:38;99379.09;;;11.56;100.00
54540;BME280;40438;52.992;18.604;2022-09-27T08:40:06;99377.31;;;11.67;100.00
54540;BME280;40438;52.992;18.604;2022-09-27T08:42:39;99378.19;;;11.72;100.00
54540;BME280;40438;52.992;18.604;2022-09-27T08:45:15;99386.06;;;11.84;100.00
54540;BME280;40438;52.992;18.604;2022-09-27T08:47:45;99377.72;;;11.80;100.00
54540;BME280;40438;52.992;18.604;2022-09-27T08:50:21;99378.25;;;11.82;100.00
54540;BME280;40438;52.992;18.604;2022-09-27T08:52:54;99373.22;;;11.86;100.00
54540;BME280;40438;52.992;18.604;2022-09-27T08:55:28;99373.78;;;11.88;100.00
54540;BME280;40438;52.992;18.604;2022-09-27T08:57:56;99370.59;;;11.91;100.00
54540;BME280;40438;52.992;18.604;2022-09-27T09:00:27;99366.28;;;11.90;100.00
54540;BME280;40438;52.992;18.604;2022-09-27T09:02:54;99364.75;;;11.99;100.00
54540;BME280;40438;52.992;18.604;2022-09-27T09:05:27;99363.47;;;12.07;100.00
54540;BME280;40438;52.992;18.604;2022-09-27T09:08:10;99353.03;;;12.11;100.00
54540;BME280;40438;52.992;18.604;2022-09-27T09:10:48;99345.78;;;12.11;100.00
54540;BME280;40438;52.992;18.604;2022-09-27T09:13:24;99343.69;;;12.18;100.00
54540;BME280;40438;52.992;18.604;2022-09-27T09:16:11;99328.97;;;12.26;100.00
54540;BME280;40438;52.992;18.604;2022-09-27T09:18:59;99339.75;;;12.31;100.00
54540;BME280;40438;52.992;18.604;2022-09-27T09:21:47;99340.56;;;12.31;100.00
54540;BME280;40438;52.992;18.604;2022-09-27T09:24:29;99345.34;;;12.24;100.00
54540;BME280;40438;52.992;18.604;2022-09-27T09:27:04;99345.59;;;12.23;99.07
54540;BME280;40438;52.992;18.604;2022-09-27T09:29:43;99336.16;;;12.20;99.59
54540;BME280;40438;52.992;18.604;2022-09-27T09:32:24;99344.28;;;12.25;99.34
54540;BME280;40438;52.992;18.604;2022-09-27T09:34:58;99355.56;;;12.27;99.64
54540;BME280;40438;52.992;18.604;2022-09-27T09:37:35;99348.63;;;12.37;99.95
54540;BME280;40438;52.992;18.604;2022-09-27T09:40:12;99347.84;;;12.41;100.00
54540;BME280;40438;52.992;18.604;2022-09-27T09:42:41;99350.59;;;12.46;99.60
54540;BME280;40438;52.992;18.604;2022-09-27T09:45:15;99362.94;;;12.47;99.46
54540;BME280;40438;52.992;18.604;2022-09-27T09:47:45;99354.59;;;12.49;99.04
54540;BME280;40438;52.992;18.604;2022-09-27T09:50:17;99353.03;;;12.53;99.07
54540;BME280;40438;52.992;18.604;2022-09-27T09:52:46;99349.81;;;12.56;98.19
54540;BME280;40438;52.992;18.604;2022-09-27T09:55:19;99347.91;;;12.51;97.18
54540;BME280;40438;52.992;18.604;2022-09-27T09:57:58;99346.59;;;12.54;98.29
54540;BME280;40438;52.992;18.604;2022-09-27T10:00:32;99356.25;;;12.50;97.29
54540;BME280;40438;52.992;18.604;2022-09-27T10:02:59;99349.00;;;12.50;96.26
54540;BME280;40438;52.992;18.604;2022-09-27T10:05:26;99339.28;;;12.49;96.69
54540;BME280;40438;52.992;18.604;2022-09-27T10:08:11;99338.75;;;12.47;97.03
54540;BME280;40438;52.992;18.604;2022-09-27T10:10:39;99325.56;;;12.41;97.56
54540;BME280;40438;52.992;18.604;2022-09-27T10:13:07;99324.00;;;12.50;98.49
54540;BME280;40438;52.992;18.604;2022-09-27T10:15:37;99316.00;;;12.60;98.71
54540;BME280;40438;52.992;18.604;2022-09-27T10:18:05;99319.28;;;12.72;98.78
54540;BME280;40438;52.992;18.604;2022-09-27T10:20:34;99317.66;;;12.76;97.52
54540;BME280;40438;52.992;18.604;2022-09-27T10:23:12;99318.19;;;12.73;95.28
54540;BME280;40438;52.992;18.604;2022-09-27T10:26:00;99313.97;;;12.88;94.85
54540;BME280;40438;52.992;18.604;2022-09-27T10:28:43;99310.22;;;12.99;95.51
54540;BME280;40438;52.992;18.604;2022-09-27T10:31:13;99307.09;;;13.38;96.50
54540;BME280;40438;52.992;18.604;2022-09-27T10:33:53;99306.59;;;13.77;92.42
54540;BME280;40438;52.992;18.604;2022-09-27T10:36:23;99302.75;;;14.19;89.46
54540;BME280;40438;52.992;18.604;2022-09-27T10:38:52;99299.44;;;14.62;88.01
54540;BME280;40438;52.992;18.604;2022-09-27T10:41:32;99284.84;;;15.18;84.50
54540;BME280;40438;52.992;18.604;2022-09-27T10:44:20;99280.84;;;15.84;82.01
54540;BME280;40438;52.992;18.604;2022-09-27T10:46:58;99284.94;;;16.35;79.16
54540;BME280;40438;52.992;18.604;2022-09-27T10:49:40;99264.84;;;16.65;76.52
54540;BME280;40438;52.992;18.604;2022-09-27T10:52:32;99257.69;;;16.74;74.91
54540;BME280;40438;52.992;18.604;2022-09-27T10:55:03;99266.16;;;16.67;75.47
54540;BME280;40438;52.992;18.604;2022-09-27T10:57:32;99262.59;;;16.72;75.63
54540;BME280;40438;52.992;18.604;2022-09-27T11:00:03;99269.41;;;16.45;74.84
54540;BME280;40438;52.992;18.604;2022-09-27T11:02:32;99268.63;;;16.21;76.05
54540;BME280;40438;52.992;18.604;2022-09-27T11:05:09;99266.50;;;16.18;77.17
54540;BME280;40438;52.992;18.604;2022-09-27T11:07:36;99262.56;;;16.05;77.81
54540;BME280;40438;52.992;18.604;2022-09-27T11:10:21;99264.97;;;16.07;78.64
54540;BME280;40438;52.992;18.604;2022-09-27T11:13:05;99262.50;;;16.10;78.58
54540;BME280;40438;52.992;18.604;2022-09-27T11:15:36;99260.59;;;16.11;79.49
54540;BME280;40438;52.992;18.604;2022-09-27T11:18:10;99255.47;;;16.33;78.90
54540;BME280;40438;52.992;18.604;2022-09-27T11:20:40;99243.88;;;16.57;78.97
54540;BME280;40438;52.992;18.604;2022-09-27T11:23:35;99236.31;;;16.78;76.53
54540;BME280;40438;52.992;18.604;2022-09-27T11:26:15;99235.44;;;16.82;76.19
54540;BME280;40438;52.992;18.604;2022-09-27T11:28:56;99234.66;;;16.82;76.17
54540;BME280;40438;52.992;18.604;2022-09-27T11:31:53;99238.72;;;16.55;76.66
54540;BME280;40438;52.992;18.604;2022-09-27T11:34:33;99234.38;;;16.59;77.36
54540;BME280;40438;52.992;18.604;2022-09-27T11:37:11;99236.84;;;16.56;76.67
54540;BME280;40438;52.992;18.604;2022-09-27T11:39:51;99233.53;;;16.40;78.32
54540;BME280;40438;52.992;18.604;2022-09-27T11:42:40;99228.88;;;16.64;77.89
54540;BME280;40438;52.992;18.604;2022-09-27T11:45:24;99216.56;;;16.77;77.79
54540;BME280;40438;52.992;18.604;2022-09-27T11:48:03;99217.03;;;16.84;76.47
54540;BME280;40438;52.992;18.604;2022-09-27T11:50:48;99213.81;;;16.82;76.02
54540;BME280;40438;52.992;18.604;2022-09-27T11:53:35;99221.03;;;16.87;76.53
54540;BME280;40438;52.992;18.604;2022-09-27T11:56:19;99217.97;;;16.93;76.58
54540;BME280;40438;52.992;18.604;2022-09-27T11:58:58;99221.41;;;16.80;77.77
54540;BME280;40438;52.992;18.604;2022-09-27T12:01:37;99219.22;;;16.58;77.38
54540;BME280;40438;52.992;18.604;2022-09-27T12:04:40;99215.66;;;16.44;77.85
54540;BME280;40438;52.992;18.604;2022-09-27T12:07:12;99214.84;;;16.43;77.83
54540;BME280;40438;52.992;18.604;2022-09-27T12:09:44;99219.47;;;16.19;78.93
54540;BME280;40438;52.992;18.604;2022-09-27T12:12:14;99212.38;;;16.23;79.46
54540;BME280;40438;52.992;18.604;2022-09-27T12:14:46;99201.00;;;16.26;79.72
54540;BME280;40438;52.992;18.604;2022-09-27T12:17:18;99204.31;;;16.42;79.30
54540;BME280;40438;52.992;18.604;2022-09-27T12:19:50;99202.66;;;16.46;79.33
54540;BME280;40438;52.992;18.604;2022-09-27T12:22:24;99212.88;;;16.68;78.66
54540;BME280;40438;52.992;18.604;2022-09-27T12:24:51;99196.91;;;16.71;77.61
54540;BME280;40438;52.992;18.604;2022-09-27T12:27:36;99201.50;;;16.71;77.94
54540;BME280;40438;52.992;18.604;2022-09-27T12:30:05;99197.50;;;16.68;78.51
54540;BME280;40438;52.992;18.604;2022-09-27T12:32:36;99197.19;;;16.70;78.88
54540;BME280;40438;52.992;18.604;2022-09-27T12:35:15;99182.75;;;16.80;77.90
54540;BME280;40438;52.992;18.604;2022-09-27T12:37:45;99181.03;;;17.03;78.22
54540;BME280;40438;52.992;18.604;2022-09-27T12:40:16;99177.16;;;17.09;76.17
54540;BME280;40438;52.992;18.604;2022-09-27T12:42:50;99176.34;;;17.08;76.34
54540;BME280;40438;52.992;18.604;2022-09-27T12:45:42;99172.81;;;16.94;76.04
54540;BME280;40438;52.992;18.604;2022-09-27T12:48:21;99166.50;;;16.99;75.89
54540;BME280;40438;52.992;18.604;2022-09-27T12:50:53;99169.53;;;16.78;77.52
54540;BME280;40438;52.992;18.604;2022-09-27T12:53:24;99166.53;;;16.80;78.17
54540;BME280;40438;52.992;18.604;2022-09-27T12:56:05;99165.31;;;16.67;77.85
54540;BME280;40438;52.992;18.604;2022-09-27T13:01:36;99161.00;;;16.28;79.81
54540;BME280;40438;52.992;18.604;2022-09-27T13:04:29;99156.81;;;16.17;80.73
54540;BME280;40438;52.992;18.604;2022-09-27T13:07:16;99160.22;;;16.04;81.95
54540;BME280;40438;52.992;18.604;2022-09-27T13:10:03;99152.28;;;15.88;81.52
54540;BME280;40438;52.992;18.604;2022-09-27T13:12:36;99148.16;;;15.72;82.31
54540;BME280;40438;52.992;18.604;2022-09-27T13:15:12;99146.03;;;15.69;82.78
54540;BME280;40438;52.992;18.604;2022-09-27T13:17:53;99143.41;;;15.59;83.98
54540;BME280;40438;52.992;18.604;2022-09-27T13:20:44;99136.75;;;15.51;84.39
54540;BME280;40438;52.992;18.604;2022-09-27T13:23:56;99123.94;;;15.67;83.94
54540;BME280;40438;52.992;18.604;2022-09-27T13:26:48;99120.94;;;15.92;82.94
54540;BME280;40438;52.992;18.604;2022-09-27T13:29:23;99117.44;;;16.11;81.69
54540;BME280;40438;52.992;18.604;2022-09-27T13:35:18;99108.13;;;16.22;81.41
54540;BME280;40438;52.992;18.604;2022-09-27T13:37:53;99095.91;;;16.06;81.39